Flight Track Log - Related Links

Times and Time Zones

All times are in EDT time to prevent confusion due to time zone crossing. See the CPZ5714 flight status page for this flight to view local times or setup timezone preferences in your user account.

Time Position Orientation Groundspeed Altitude Reporting Facility
EDT Latitude Longitude Course Direction KTS MPH feet Rate Location/Type
Fri 08:48:17 PM 44.9167 -93.2333 45° Northeast 155 178 2,900  Level Minneapolis TRACON
Fri 08:48:57 PM 44.9425 -93.2378 353° North 159 183 3,900 1,689 Climbing Minneapolis Center
Fri 08:50:00 PM 44.9947 -93.2311 North 186 214 5,800 1,440 Climbing Minneapolis Center
Fri 08:51:02 PM 45.0353 -93.1475 56° Northeast 254 292 6,900 1,065 Climbing Minneapolis Center
Fri 08:52:00 PM 45.3082 -92.5309 45° Northeast  Level FlightAware Approximate
Fri 08:52:04 PM 45.0861 -93.0419 56° Northeast 269 310 8,000  Level Minneapolis Center
Fri 08:53:00 PM 45.3853 -92.4195 45° Northeast  Level FlightAware Approximate
Fri 08:53:06 PM 45.1289 -92.9525 56° Northeast 274 315 10,100  Level Minneapolis Center
Fri 08:54:08 PM 45.1664 -92.8389 65° Northeast 326 375 11,800 1,839 Climbing Minneapolis Center
Fri 08:55:10 PM 45.2067 -92.7153 65° Northeast 345 397 13,900 2,177 Climbing Minneapolis Center
Fri 08:56:12 PM 45.2492 -92.5856 65° Northeast 361 415 16,300 2,177 Climbing Minneapolis Center
Fri 08:57:14 PM 45.3033 -92.4642 58° Northeast 366 421 18,400 2,081 Climbing Minneapolis Center
Fri 08:58:16 PM 45.3936 -92.3417 44° Northeast 372 428 20,600 1,839 Climbing Minneapolis Center
Fri 08:59:18 PM 45.4706 -92.2347 44° Northeast 385 443 22,200 1,597 Climbing Minneapolis Center
Fri 09:00:20 PM 45.5497 -92.1219 45° Northeast 400 460 23,900 1,500 Climbing Minneapolis Center
Fri 09:01:22 PM 45.6311 -92.0067 45° Northeast 411 473 25,300 1,258 Climbing Minneapolis Center
Fri 09:02:24 PM 45.7131 -91.8894 45° Northeast 416 479 26,500 1,210 Climbing Minneapolis Center
Fri 09:03:26 PM 45.7961 -91.7708 45° Northeast 422 486 27,800 1,248 Climbing Minneapolis Center
Fri 09:04:29 PM 45.8386 -91.5636 74° East 447 514 29,100 1,248 Climbing Minneapolis Center
Fri 09:05:31 PM 45.8572 -91.3889 81° East 445 512 30,400 1,016 Climbing Minneapolis Center
Fri 09:06:33 PM 45.8750 -91.2147 82° East 442 509 31,200 823 Climbing Minneapolis Center
Fri 09:07:35 PM 45.8928 -91.0392 82° East 445 512 32,100 823 Climbing Minneapolis Center
Fri 09:08:37 PM 45.9117 -90.8642 81° East 445 512 32,900 823 Climbing Minneapolis Center
Fri 09:09:39 PM 45.9308 -90.6881 81° East 446 513 33,800 919 Climbing Minneapolis Center
Fri 09:10:41 PM 45.9533 -90.4797 81° East 442 509 34,800 581 Climbing Minneapolis Center
Fri 09:11:43 PM 45.9700 -90.3036 82° East 445 512 35,000 97 Climbing Minneapolis Center
Fri 09:12:45 PM 45.9881 -90.1258 82° East 450 518 35,000  Level Minneapolis Center
Fri 09:13:47 PM 46.0056 -89.9514 82° East 442 509 35,000  Level Minneapolis Center
Fri 09:15:00 PM 46.0167 -89.7565 85° East  Level FlightAware Approximate
Fri 09:15:51 PM 46.0383 -89.6011 85° East 442 509 35,000  Level Minneapolis Center
Fri 09:16:52 PM 46.0553 -89.4258 82° East 443 510 35,000  Level Minneapolis Center
Fri 09:17:54 PM 46.0744 -89.2161 82° East 442 509 35,000  Level Minneapolis Center
Fri 09:18:56 PM 46.0906 -89.0403 82° East 444 511 35,000  Level Minneapolis Center
Fri 09:19:58 PM 46.1047 -88.8822 83° East 443 510 35,000  Level Minneapolis Center
Fri 09:21:00 PM 46.1233 -88.6733 83° East 438 504 35,000  Level Minneapolis Center
Fri 09:22:02 PM 46.1375 -88.4983 83° East 439 505 35,000  Level Minneapolis Center
Fri 09:23:04 PM 46.1525 -88.3233 83° East 441 507 35,000  Level Minneapolis Center
Fri 09:24:06 PM 46.1667 -88.1486 83° East 441 507 35,000  Level Minneapolis Center
Fri 09:25:07 PM 46.1825 -87.9564 83° East 440 506 35,000  Level Minneapolis Center
Fri 09:26:09 PM 46.1961 -87.7817 84° East 440 506 35,000  Level Minneapolis Center
Fri 09:27:11 PM 46.2094 -87.6056 84° East 440 506 35,000  Level Minneapolis Center
Fri 09:28:13 PM 46.2231 -87.4300 84° East 441 507 35,000  Level Minneapolis Center
Fri 09:29:15 PM 46.2347 -87.2561 84° East 435 501 35,000  Level Minneapolis Center
Fri 09:30:16 PM 46.2483 -87.0833 83° East 434 499 35,000  Level Minneapolis Center
Fri 09:31:18 PM 46.2600 -86.9133 84° East 428 493 35,000  Level Minneapolis Center
Fri 09:32:20 PM 46.2744 -86.7092 84° East 426 490 35,000  Level Minneapolis Center
Fri 09:33:22 PM 46.2858 -86.5350 85° East 433 498 35,000  Level Minneapolis Center
Fri 09:34:24 PM 46.2975 -86.3644 84° East 428 493 35,000  Level Minneapolis Center
Fri 09:35:25 PM 46.3081 -86.1936 85° East 427 491 35,000  Level Minneapolis Center
Fri 09:36:27 PM 46.3186 -86.0225 85° East 425 489 35,000  Level Minneapolis Center
Fri 09:37:29 PM 46.3286 -85.8561 85° East 422 486 35,000  Level Minneapolis Center
Fri 09:38:43 PM 46.3392 -85.6875 85° East 421 484 35,000  Level Minneapolis Center
Fri 09:39:44 PM 46.3539 -85.4511 85° East 422 486 35,000  Level Minneapolis Center
Fri 09:40:46 PM 46.3628 -85.2861 85° East 415 478 35,000  Level Minneapolis Center
Fri 09:41:48 PM 46.3717 -85.1214 85° East 412 474 35,000  Level Minneapolis Center
Fri 09:42:49 PM 46.3806 -84.9567 85° East 411 473 35,000  Level Minneapolis Center
Fri 09:43:51 PM 46.3894 -84.7931 85° East 410 472 35,000  Level Minneapolis Center
Fri 09:44:53 PM 46.3969 -84.6233 86° East 414 476 35,000  Level Minneapolis Center
Fri 09:46:03 PM 46.4000 -84.4000 89° East 420 483 35,000  Level Toronto Center
Fri 09:47:03 PM 46.4000 -84.2333 90° East 420 483 35,000  Level Toronto Center
Fri 09:48:03 PM 46.3833 -84.0833 99° East 420 483 35,000  Level Toronto Center
Fri 09:49:03 PM 46.3833 -83.9167 90° East 420 483 35,000  Level Toronto Center
Fri 09:50:03 PM 46.3833 -83.7333 90° East 420 483 35,000  Level Toronto Center
Fri 09:51:03 PM 46.3667 -83.5667 98° East 420 483 35,000  Level Toronto Center
Fri 09:52:03 PM 46.3500 -83.4000 98° East 420 483 35,000  Level Toronto Center
Fri 09:53:03 PM 46.3500 -83.2333 90° East 410 472 35,000  Level Toronto Center
Fri 09:54:03 PM 46.3500 -83.0667 90° East 410 472 35,000  Level Toronto Center
Fri 09:55:03 PM 46.3333 -82.9000 98° East 410 472 35,000  Level Toronto Center
Fri 09:56:03 PM 46.3167 -82.7500 99° East 410 472 35,000  Level Toronto Center
Fri 09:57:03 PM 46.3167 -82.5833 90° East 410 472 35,000  Level Toronto Center
Fri 09:58:03 PM 46.3000 -82.4000 97° East 420 483 35,000  Level Toronto Center
Fri 09:59:03 PM 46.2833 -82.2333 98° East 420 483 35,000  Level Toronto Center
Fri 10:00:03 PM 46.2667 -82.0667 98° East 420 483 35,000  Level Toronto Center
Fri 10:01:03 PM 46.2833 -81.9000 82° East 420 483 35,000  Level Toronto Center
Fri 10:02:03 PM 46.2667 -81.7333 98° East 420 483 35,000  Level Toronto Center
Fri 10:03:03 PM 46.2500 -81.5667 98° East 420 483 35,000  Level Toronto Center
Fri 10:04:03 PM 46.2333 -81.3833 97° East 420 483 35,000  Level Toronto Center
Fri 10:05:03 PM 46.2167 -81.2167 98° East 420 483 35,000  Level Toronto Center
Fri 10:06:03 PM 46.2000 -81.0500 98° East 420 483 35,000  Level Toronto Center
Fri 10:07:03 PM 46.2167 -80.8833 82° East 420 483 35,000  Level Toronto Center
Fri 10:08:03 PM 46.2000 -80.7167 98° East 420 483 35,000  Level Toronto Center
Fri 10:09:03 PM 46.1333 -80.6000 129° Southeast 410 472 35,000  Level Toronto Center
Fri 10:10:03 PM 46.0667 -80.4500 123° Southeast 410 472 35,000  Level Toronto Center
Fri 10:11:03 PM 46.0167 -80.3000 116° Southeast 420 483 35,000  Level Toronto Center
Fri 10:12:03 PM 45.9500 -80.1667 126° Southeast 420 483 35,000  Level Toronto Center
Fri 10:13:03 PM 45.8833 -80.0167 123° Southeast 420 483 35,000  Level Toronto Center
Fri 10:14:03 PM 45.8167 -79.8667 122° Southeast 420 483 35,000  Level Toronto Center
Fri 10:15:03 PM 45.7500 -79.7500 129° Southeast 420 483 35,000  Level Toronto Center
Fri 10:16:03 PM 45.7000 -79.6000 115° Southeast 420 483 35,000  Level Toronto Center
Fri 10:17:03 PM 45.6333 -79.4667 126° Southeast 420 483 35,000  Level Toronto Center
Fri 10:18:03 PM 45.5667 -79.3167 122° Southeast 420 483 35,000  Level Toronto Center
Fri 10:19:03 PM 45.5000 -79.1833 125° Southeast 420 483 35,000  Level Toronto Center
Fri 10:20:03 PM 45.4500 -79.0667 121° Southeast 420 483 35,000  Level Toronto Center
Fri 10:21:03 PM 45.3833 -78.9167 122° Southeast 420 483 35,000  Level Toronto Center
Fri 10:22:03 PM 45.3167 -78.7833 125° Southeast 420 483 35,000  Level Toronto Center
Fri 10:23:03 PM 45.2500 -78.6333 122° Southeast 420 483 35,000  Level Toronto Center
Fri 10:24:03 PM 45.1833 -78.5000 125° Southeast 420 483 35,000  Level Toronto Center
Fri 10:25:03 PM 45.1167 -78.3833 129° Southeast 420 483 35,000  Level Toronto Center
Fri 10:26:03 PM 45.0500 -78.2333 122° Southeast 420 483 35,000  Level Toronto Center
Fri 10:27:03 PM 44.9833 -78.1000 125° Southeast 420 483 35,000  Level Toronto Center
Fri 10:28:03 PM 44.9167 -77.9667 125° Southeast 420 483 35,000  Level Toronto Center
Fri 10:29:03 PM 44.8500 -77.8167 122° Southeast 420 483 35,000  Level Toronto Center
Fri 10:30:03 PM 44.7833 -77.6833 125° Southeast 420 483 35,000  Level Toronto Center
Fri 10:31:03 PM 44.7333 -77.5500 118° Southeast 420 483 35,000  Level Toronto Center
Fri 10:32:03 PM 44.6667 -77.4000 122° Southeast 420 483 35,000  Level Toronto Center
Fri 10:33:03 PM 44.5833 -77.2833 135° Southeast 430 495 35,000  Level Toronto Center
Fri 10:34:03 PM 44.5167 -77.1333 122° Southeast 430 495 35,000 -350 Level Toronto Center
Fri 10:35:03 PM 44.4500 -77.0167 129° Southeast 430 495 34,300 -857 Descending Toronto Center
Fri 10:36:02 PM 44.3833 -76.8833 125° Southeast 430 495 33,300 -650 Descending Toronto Center
Fri 10:37:03 PM 44.3167 -76.7500 125° Southeast 430 495 33,000 -149 Descending Toronto Center
Fri 10:38:03 PM 44.2333 -76.6000 128° Southeast 430 495 33,000  Level Toronto Center
Fri 10:40:25 PM 44.0944 -76.2997 123° Southeast 441 507 33,000  Level Boston Center
Fri 10:41:25 PM 44.0239 -76.1622 125° Southeast 441 507 33,000  Level Boston Center
Fri 10:42:25 PM 43.9511 -76.0278 127° Southeast 441 507 33,000  Level Boston Center
Fri 10:43:25 PM 43.8822 -75.8911 125° Southeast 441 507 33,000  Level Boston Center
Fri 10:44:25 PM 43.8111 -75.7575 126° Southeast 441 507 33,000 -150 Level Boston Center
Fri 10:45:25 PM 43.7381 -75.6214 127° Southeast 441 507 32,700 -1,250 Descending Boston Center
Fri 10:46:25 PM 43.6686 -75.4886 126° Southeast 441 507 30,500 -2,300 Descending Boston Center
Fri 10:47:25 PM 43.5969 -75.3531 126° Southeast 441 507 28,100 -2,100 Descending Boston Center
Fri 10:48:25 PM 43.5333 -75.2325 126° Southeast 441 507 26,300 -2,050 Descending Boston Center
Fri 10:49:25 PM 43.4633 -75.1061 127° Southeast 435 501 24,000 -2,200 Descending Boston Center
Fri 10:50:25 PM 43.3975 -74.9833 126° Southeast 416 479 21,900 -2,050 Descending Boston Center
Fri 10:51:25 PM 43.3353 -74.8664 126° Southeast 396 456 19,900 -1,800 Descending Boston Center
Fri 10:52:25 PM 43.2731 -74.7528 127° Southeast 383 441 18,300 -1,950 Descending Boston Center
Fri 10:53:25 PM 43.2147 -74.6481 127° Southeast 370 426 16,000 -2,050 Descending Boston Center
Fri 10:54:25 PM 43.1583 -74.5436 126° Southeast 351 404 14,200 -1,800 Descending Boston Center
Fri 10:55:25 PM 43.0978 -74.4333 127° Southeast 336 387 12,400 -1,750 Descending Boston Center
Fri 10:56:25 PM 43.0472 -74.3408 127° Southeast 320 368 10,700 -1,650 Descending Boston Center
Fri 10:57:25 PM 42.9967 -74.2511 128° Southeast 303 349 9,100 -1,700 Descending Boston Center
Fri 10:58:25 PM 42.9372 -74.1869 142° Southeast 280 322 7,300 -1,550 Descending Boston Center
Fri 10:59:25 PM 42.8778 -74.1203 141° Southeast 280 322 6,000 -1,300 Descending Boston Center
Fri 11:00:25 PM 42.8286 -74.0681 142° Southeast 264 304 4,700 -1,000 Descending Boston Center
Fri 11:01:25 PM 42.7750 -74.0128 143° Southeast 259 298 4,000 -400 Descending Boston Center
Fri 11:02:25 PM 42.7217 -73.9606 144° Southeast 248 285 3,900 -200 Descending Boston Center
Fri 11:03:25 PM 42.6614 -73.9336 162° South 235 270 3,600 -300 Descending Boston Center
Fri 11:04:25 PM 42.6056 -73.9097 163° South 223 257 3,300 -350 Descending Boston Center
Fri 11:05:25 PM 42.5644 -73.8636 140° Southeast 200 230 2,900 -300 Descending Boston Center
Fri 11:06:25 PM 42.5881 -73.8022 62° Northeast 129 148 2,700 -300 Descending Boston Center
Fri 11:07:25 PM 42.6297 -73.8031 359° North 108 124 2,300 -400 Descending Boston Center

Login

Don't have an account? Register now (free) for customized features, flight alerts, and more!